sensor_id;sensor_type;location;lat;lon;timestamp;P1;durP1;ratioP1;P2;durP2;ratioP2
13693;SDS011;6919;52.344;14.518;2023-06-24T00:01:52;1.50;;;1.40;;
13693;SDS011;6919;52.344;14.518;2023-06-24T00:04:21;1.40;;;0.97;;
13693;SDS011;6919;52.344;14.518;2023-06-24T00:06:51;1.70;;;1.57;;
13693;SDS011;6919;52.344;14.518;2023-06-24T00:09:25;1.60;;;1.50;;
13693;SDS011;6919;52.344;14.518;2023-06-24T00:11:54;1.33;;;1.23;;
13693;SDS011;6919;52.344;14.518;2023-06-24T00:14:23;1.97;;;1.37;;
13693;SDS011;6919;52.344;14.518;2023-06-24T00:16:52;1.33;;;1.23;;
13693;SDS011;6919;52.344;14.518;2023-06-24T00:19:23;2.93;;;2.03;;
13693;SDS011;6919;52.344;14.518;2023-06-24T00:21:55;1.73;;;1.27;;
13693;SDS011;6919;52.344;14.518;2023-06-24T00:24:25;1.50;;;1.33;;
13693;SDS011;6919;52.344;14.518;2023-06-24T00:26:54;1.37;;;1.27;;
13693;SDS011;6919;52.344;14.518;2023-06-24T00:29:23;1.47;;;1.20;;
13693;SDS011;6919;52.344;14.518;2023-06-24T00:31:51;2.93;;;1.50;;
13693;SDS011;6919;52.344;14.518;2023-06-24T00:34:20;1.23;;;1.07;;
13693;SDS011;6919;52.344;14.518;2023-06-24T00:36:50;2.97;;;1.47;;
13693;SDS011;6919;52.344;14.518;2023-06-24T00:39:20;1.40;;;1.17;;
13693;SDS011;6919;52.344;14.518;2023-06-24T00:41:48;1.50;;;1.33;;
13693;SDS011;6919;52.344;14.518;2023-06-24T00:44:17;1.30;;;1.20;;
13693;SDS011;6919;52.344;14.518;2023-06-24T00:46:46;1.40;;;1.30;;
13693;SDS011;6919;52.344;14.518;2023-06-24T00:49:15;1.50;;;1.40;;
13693;SDS011;6919;52.344;14.518;2023-06-24T00:51:44;2.13;;;1.67;;
13693;SDS011;6919;52.344;14.518;2023-06-24T00:54:14;1.30;;;1.20;;
13693;SDS011;6919;52.344;14.518;2023-06-24T00:56:43;2.23;;;1.63;;
13693;SDS011;6919;52.344;14.518;2023-06-24T00:59:13;1.80;;;1.63;;
13693;SDS011;6919;52.344;14.518;2023-06-24T01:01:43;2.07;;;1.73;;
13693;SDS011;6919;52.344;14.518;2023-06-24T01:04:13;1.23;;;1.10;;
13693;SDS011;6919;52.344;14.518;2023-06-24T01:06:42;0.93;;;0.90;;
13693;SDS011;6919;52.344;14.518;2023-06-24T01:09:12;2.23;;;1.40;;
13693;SDS011;6919;52.344;14.518;2023-06-24T01:11:40;1.37;;;1.20;;
13693;SDS011;6919;52.344;14.518;2023-06-24T01:14:10;1.50;;;1.40;;
13693;SDS011;6919;52.344;14.518;2023-06-24T01:16:47;1.40;;;1.17;;
13693;SDS011;6919;52.344;14.518;2023-06-24T01:19:38;1.90;;;1.23;;
13693;SDS011;6919;52.344;14.518;2023-06-24T01:22:31;2.00;;;1.30;;
13693;SDS011;6919;52.344;14.518;2023-06-24T01:25:33;1.60;;;1.40;;
13693;SDS011;6919;52.344;14.518;2023-06-24T01:28:18;1.67;;;1.17;;
13693;SDS011;6919;52.344;14.518;2023-06-24T01:34:02;1.50;;;1.00;;
13693;SDS011;6919;52.344;14.518;2023-06-24T01:36:46;1.13;;;0.97;;
13693;SDS011;6919;52.344;14.518;2023-06-24T01:39:26;1.60;;;1.40;;
13693;SDS011;6919;52.344;14.518;2023-06-24T01:42:03;1.30;;;1.20;;
13693;SDS011;6919;52.344;14.518;2023-06-24T01:44:37;2.20;;;1.43;;
13693;SDS011;6919;52.344;14.518;2023-06-24T01:47:10;2.13;;;1.47;;
13693;SDS011;6919;52.344;14.518;2023-06-24T01:49:41;1.13;;;0.97;;
13693;SDS011;6919;52.344;14.518;2023-06-24T01:52:13;2.03;;;1.20;;
13693;SDS011;6919;52.344;14.518;2023-06-24T01:54:43;1.47;;;1.03;;
13693;SDS011;6919;52.344;14.518;2023-06-24T01:57:15;2.30;;;1.37;;
13693;SDS011;6919;52.344;14.518;2023-06-24T01:59:46;1.30;;;1.20;;
13693;SDS011;6919;52.344;14.518;2023-06-24T02:02:17;1.80;;;1.23;;
13693;SDS011;6919;52.344;14.518;2023-06-24T02:04:47;1.70;;;1.60;;
13693;SDS011;6919;52.344;14.518;2023-06-24T02:07:20;1.13;;;1.03;;
13693;SDS011;6919;52.344;14.518;2023-06-24T02:09:51;2.73;;;1.53;;
13693;SDS011;6919;52.344;14.518;2023-06-24T02:12:20;1.43;;;1.23;;
13693;SDS011;6919;52.344;14.518;2023-06-24T02:14:50;1.20;;;1.10;;
13693;SDS011;6919;52.344;14.518;2023-06-24T02:17:22;1.87;;;1.47;;
13693;SDS011;6919;52.344;14.518;2023-06-24T02:19:52;1.47;;;1.37;;
13693;SDS011;6919;52.344;14.518;2023-06-24T02:22:22;1.37;;;1.17;;
13693;SDS011;6919;52.344;14.518;2023-06-24T02:24:52;3.33;;;1.60;;
13693;SDS011;6919;52.344;14.518;2023-06-24T02:27:22;1.77;;;1.13;;
13693;SDS011;6919;52.344;14.518;2023-06-24T02:29:52;1.63;;;1.43;;
13693;SDS011;6919;52.344;14.518;2023-06-24T02:32:23;1.50;;;0.97;;
13693;SDS011;6919;52.344;14.518;2023-06-24T02:34:52;1.40;;;1.27;;
13693;SDS011;6919;52.344;14.518;2023-06-24T02:37:20;2.23;;;1.60;;
13693;SDS011;6919;52.344;14.518;2023-06-24T02:39:48;1.77;;;1.50;;
13693;SDS011;6919;52.344;14.518;2023-06-24T02:42:17;1.57;;;1.47;;
13693;SDS011;6919;52.344;14.518;2023-06-24T02:44:45;1.63;;;1.37;;
13693;SDS011;6919;52.344;14.518;2023-06-24T02:47:14;1.50;;;1.10;;
13693;SDS011;6919;52.344;14.518;2023-06-24T02:49:47;1.47;;;1.20;;
13693;SDS011;6919;52.344;14.518;2023-06-24T02:52:17;1.27;;;1.17;;
13693;SDS011;6919;52.344;14.518;2023-06-24T02:54:46;1.53;;;1.43;;
13693;SDS011;6919;52.344;14.518;2023-06-24T02:57:15;1.03;;;1.00;;
13693;SDS011;6919;52.344;14.518;2023-06-24T02:59:46;2.33;;;1.70;;
13693;SDS011;6919;52.344;14.518;2023-06-24T03:02:15;1.17;;;1.07;;
13693;SDS011;6919;52.344;14.518;2023-06-24T03:04:44;2.37;;;1.67;;
13693;SDS011;6919;52.344;14.518;2023-06-24T03:07:16;1.90;;;1.50;;
13693;SDS011;6919;52.344;14.518;2023-06-24T03:09:47;1.60;;;1.30;;
13693;SDS011;6919;52.344;14.518;2023-06-24T03:12:16;2.43;;;1.80;;
13693;SDS011;6919;52.344;14.518;2023-06-24T03:14:44;2.50;;;1.77;;
13693;SDS011;6919;52.344;14.518;2023-06-24T03:17:12;1.73;;;1.40;;
13693;SDS011;6919;52.344;14.518;2023-06-24T03:19:41;2.43;;;1.50;;
13693;SDS011;6919;52.344;14.518;2023-06-24T03:22:11;1.90;;;1.80;;
13693;SDS011;6919;52.344;14.518;2023-06-24T03:24:40;1.83;;;1.33;;
13693;SDS011;6919;52.344;14.518;2023-06-24T03:27:08;1.77;;;1.67;;
13693;SDS011;6919;52.344;14.518;2023-06-24T03:29:37;1.80;;;1.30;;
13693;SDS011;6919;52.344;14.518;2023-06-24T03:32:05;2.10;;;1.80;;
13693;SDS011;6919;52.344;14.518;2023-06-24T03:34:34;2.00;;;1.80;;
13693;SDS011;6919;52.344;14.518;2023-06-24T03:37:03;2.83;;;1.80;;
13693;SDS011;6919;52.344;14.518;2023-06-24T03:39:33;1.90;;;1.70;;
13693;SDS011;6919;52.344;14.518;2023-06-24T03:42:03;1.40;;;1.30;;
13693;SDS011;6919;52.344;14.518;2023-06-24T03:44:32;1.67;;;1.57;;
13693;SDS011;6919;52.344;14.518;2023-06-24T03:47:00;2.80;;;2.10;;
13693;SDS011;6919;52.344;14.518;2023-06-24T03:49:28;3.33;;;2.10;;
13693;SDS011;6919;52.344;14.518;2023-06-24T03:51:56;1.97;;;1.77;;
13693;SDS011;6919;52.344;14.518;2023-06-24T03:54:25;2.13;;;1.90;;
13693;SDS011;6919;52.344;14.518;2023-06-24T03:56:55;3.17;;;2.37;;
13693;SDS011;6919;52.344;14.518;2023-06-24T03:59:23;2.37;;;2.10;;
13693;SDS011;6919;52.344;14.518;2023-06-24T04:01:51;4.57;;;2.50;;
13693;SDS011;6919;52.344;14.518;2023-06-24T04:04:20;4.50;;;2.77;;
13693;SDS011;6919;52.344;14.518;2023-06-24T04:06:49;3.37;;;2.00;;
13693;SDS011;6919;52.344;14.518;2023-06-24T04:09:18;3.40;;;2.27;;
13693;SDS011;6919;52.344;14.518;2023-06-24T04:11:46;2.63;;;1.77;;
13693;SDS011;6919;52.344;14.518;2023-06-24T04:14:15;2.50;;;1.80;;
13693;SDS011;6919;52.344;14.518;2023-06-24T04:16:44;2.20;;;2.00;;
13693;SDS011;6919;52.344;14.518;2023-06-24T04:19:12;3.30;;;2.40;;
13693;SDS011;6919;52.344;14.518;2023-06-24T04:21:40;2.97;;;1.90;;
13693;SDS011;6919;52.344;14.518;2023-06-24T04:24:08;3.47;;;1.90;;
13693;SDS011;6919;52.344;14.518;2023-06-24T04:26:37;2.73;;;1.80;;
13693;SDS011;6919;52.344;14.518;2023-06-24T04:29:05;4.27;;;2.33;;
13693;SDS011;6919;52.344;14.518;2023-06-24T04:31:34;2.00;;;1.70;;
13693;SDS011;6919;52.344;14.518;2023-06-24T04:34:03;2.53;;;2.07;;
13693;SDS011;6919;52.344;14.518;2023-06-24T04:36:31;2.43;;;1.97;;
13693;SDS011;6919;52.344;14.518;2023-06-24T04:38:59;3.53;;;2.33;;
13693;SDS011;6919;52.344;14.518;2023-06-24T04:41:28;2.30;;;2.10;;
13693;SDS011;6919;52.344;14.518;2023-06-24T04:43:57;1.83;;;1.70;;
13693;SDS011;6919;52.344;14.518;2023-06-24T04:46:26;3.57;;;2.37;;
13693;SDS011;6919;52.344;14.518;2023-06-24T04:48:55;2.97;;;2.30;;
13693;SDS011;6919;52.344;14.518;2023-06-24T04:51:24;3.07;;;2.50;;
13693;SDS011;6919;52.344;14.518;2023-06-24T04:53:52;2.77;;;2.53;;
13693;SDS011;6919;52.344;14.518;2023-06-24T04:56:21;2.23;;;1.93;;
13693;SDS011;6919;52.344;14.518;2023-06-24T04:58:49;2.87;;;1.80;;
13693;SDS011;6919;52.344;14.518;2023-06-24T05:01:18;2.37;;;2.00;;
13693;SDS011;6919;52.344;14.518;2023-06-24T05:03:46;3.80;;;2.03;;
13693;SDS011;6919;52.344;14.518;2023-06-24T05:06:16;3.43;;;2.30;;
13693;SDS011;6919;52.344;14.518;2023-06-24T05:08:45;2.87;;;2.40;;
13693;SDS011;6919;52.344;14.518;2023-06-24T05:11:13;3.00;;;2.13;;
13693;SDS011;6919;52.344;14.518;2023-06-24T05:13:41;2.60;;;1.80;;
13693;SDS011;6919;52.344;14.518;2023-06-24T05:16:10;3.47;;;2.53;;
13693;SDS011;6919;52.344;14.518;2023-06-24T05:18:38;3.03;;;1.80;;
13693;SDS011;6919;52.344;14.518;2023-06-24T05:21:06;2.90;;;1.70;;
13693;SDS011;6919;52.344;14.518;2023-06-24T05:23:36;2.10;;;1.90;;
13693;SDS011;6919;52.344;14.518;2023-06-24T05:26:04;3.17;;;1.87;;
13693;SDS011;6919;52.344;14.518;2023-06-24T05:28:32;2.87;;;2.37;;
13693;SDS011;6919;52.344;14.518;2023-06-24T05:31:01;2.20;;;1.67;;
13693;SDS011;6919;52.344;14.518;2023-06-24T05:33:29;2.33;;;2.00;;
13693;SDS011;6919;52.344;14.518;2023-06-24T05:35:57;1.90;;;1.40;;
13693;SDS011;6919;52.344;14.518;2023-06-24T05:38:26;2.97;;;2.40;;
13693;SDS011;6919;52.344;14.518;2023-06-24T05:40:55;1.67;;;1.33;;
13693;SDS011;6919;52.344;14.518;2023-06-24T05:43:25;2.07;;;1.80;;
13693;SDS011;6919;52.344;14.518;2023-06-24T05:45:54;2.97;;;2.13;;
13693;SDS011;6919;52.344;14.518;2023-06-24T05:48:22;1.73;;;1.50;;
13693;SDS011;6919;52.344;14.518;2023-06-24T05:50:51;2.23;;;1.93;;
13693;SDS011;6919;52.344;14.518;2023-06-24T05:53:19;3.13;;;2.10;;
13693;SDS011;6919;52.344;14.518;2023-06-24T05:55:47;3.50;;;2.27;;
13693;SDS011;6919;52.344;14.518;2023-06-24T05:58:17;2.07;;;1.87;;
13693;SDS011;6919;52.344;14.518;2023-06-24T06:00:45;2.43;;;1.80;;
13693;SDS011;6919;52.344;14.518;2023-06-24T06:03:13;1.87;;;1.73;;
13693;SDS011;6919;52.344;14.518;2023-06-24T06:05:41;2.17;;;1.77;;
13693;SDS011;6919;52.344;14.518;2023-06-24T06:08:10;2.27;;;2.03;;
13693;SDS011;6919;52.344;14.518;2023-06-24T06:10:38;2.37;;;1.77;;
13693;SDS011;6919;52.344;14.518;2023-06-24T06:13:06;2.27;;;2.07;;
13693;SDS011;6919;52.344;14.518;2023-06-24T06:15:36;2.43;;;1.50;;
13693;SDS011;6919;52.344;14.518;2023-06-24T06:18:04;1.67;;;1.57;;
13693;SDS011;6919;52.344;14.518;2023-06-24T06:20:33;1.33;;;1.13;;
13693;SDS011;6919;52.344;14.518;2023-06-24T06:23:01;2.53;;;1.87;;
13693;SDS011;6919;52.344;14.518;2023-06-24T06:25:30;1.60;;;1.50;;
13693;SDS011;6919;52.344;14.518;2023-06-24T06:27:59;3.30;;;1.80;;
13693;SDS011;6919;52.344;14.518;2023-06-24T06:30:27;1.60;;;1.50;;
13693;SDS011;6919;52.344;14.518;2023-06-24T06:32:57;2.10;;;1.60;;
13693;SDS011;6919;52.344;14.518;2023-06-24T06:35:25;2.13;;;1.73;;
13693;SDS011;6919;52.344;14.518;2023-06-24T06:37:56;1.90;;;1.70;;
13693;SDS011;6919;52.344;14.518;2023-06-24T06:40:25;1.73;;;1.40;;
13693;SDS011;6919;52.344;14.518;2023-06-24T06:42:54;2.70;;;1.77;;
13693;SDS011;6919;52.344;14.518;2023-06-24T06:45:23;2.20;;;1.63;;
13693;SDS011;6919;52.344;14.518;2023-06-24T06:47:51;1.73;;;1.37;;
13693;SDS011;6919;52.344;14.518;2023-06-24T06:50:21;2.13;;;1.87;;
13693;SDS011;6919;52.344;14.518;2023-06-24T06:52:49;2.17;;;1.70;;
13693;SDS011;6919;52.344;14.518;2023-06-24T06:55:17;1.90;;;1.47;;
13693;SDS011;6919;52.344;14.518;2023-06-24T06:57:46;2.17;;;1.67;;
13693;SDS011;6919;52.344;14.518;2023-06-24T07:00:14;2.20;;;1.83;;
13693;SDS011;6919;52.344;14.518;2023-06-24T07:02:44;1.73;;;1.60;;
13693;SDS011;6919;52.344;14.518;2023-06-24T07:05:12;1.67;;;1.57;;
13693;SDS011;6919;52.344;14.518;2023-06-24T07:07:42;2.30;;;2.10;;
13693;SDS011;6919;52.344;14.518;2023-06-24T07:10:12;2.30;;;1.93;;
13693;SDS011;6919;52.344;14.518;2023-06-24T07:12:40;2.30;;;1.70;;
13693;SDS011;6919;52.344;14.518;2023-06-24T07:15:09;2.20;;;1.70;;
13693;SDS011;6919;52.344;14.518;2023-06-24T07:17:39;3.40;;;1.40;;
13693;SDS011;6919;52.344;14.518;2023-06-24T07:20:08;1.93;;;1.60;;
13693;SDS011;6919;52.344;14.518;2023-06-24T07:22:37;2.10;;;1.40;;
13693;SDS011;6919;52.344;14.518;2023-06-24T07:25:07;2.43;;;1.97;;
13693;SDS011;6919;52.344;14.518;2023-06-24T07:27:35;2.20;;;2.00;;
13693;SDS011;6919;52.344;14.518;2023-06-24T07:30:04;2.43;;;1.97;;
13693;SDS011;6919;52.344;14.518;2023-06-24T07:32:34;2.57;;;2.10;;
13693;SDS011;6919;52.344;14.518;2023-06-24T07:35:03;1.70;;;1.60;;
13693;SDS011;6919;52.344;14.518;2023-06-24T07:37:33;2.13;;;1.67;;
13693;SDS011;6919;52.344;14.518;2023-06-24T07:40:02;2.40;;;2.13;;
13693;SDS011;6919;52.344;14.518;2023-06-24T07:42:33;1.87;;;1.77;;
13693;SDS011;6919;52.344;14.518;2023-06-24T07:45:02;2.23;;;1.90;;
13693;SDS011;6919;52.344;14.518;2023-06-24T07:47:30;2.03;;;1.43;;
13693;SDS011;6919;52.344;14.518;2023-06-24T07:49:59;1.70;;;1.60;;
13693;SDS011;6919;52.344;14.518;2023-06-24T07:52:28;2.33;;;2.10;;
13693;SDS011;6919;52.344;14.518;2023-06-24T07:54:56;2.17;;;1.90;;
13693;SDS011;6919;52.344;14.518;2023-06-24T07:57:26;2.07;;;1.60;;
13693;SDS011;6919;52.344;14.518;2023-06-24T07:59:56;1.60;;;1.50;;
13693;SDS011;6919;52.344;14.518;2023-06-24T08:02:24;1.83;;;1.73;;
13693;SDS011;6919;52.344;14.518;2023-06-24T08:04:53;1.97;;;1.77;;
13693;SDS011;6919;52.344;14.518;2023-06-24T08:07:22;1.13;;;1.03;;
13693;SDS011;6919;52.344;14.518;2023-06-24T08:09:50;2.07;;;1.50;;
13693;SDS011;6919;52.344;14.518;2023-06-24T08:12:18;4.10;;;2.07;;
13693;SDS011;6919;52.344;14.518;2023-06-24T08:14:47;1.90;;;1.43;;
13693;SDS011;6919;52.344;14.518;2023-06-24T08:17:16;2.13;;;1.93;;
13693;SDS011;6919;52.344;14.518;2023-06-24T08:19:45;2.50;;;1.43;;
13693;SDS011;6919;52.344;14.518;2023-06-24T08:22:13;2.00;;;1.73;;
13693;SDS011;6919;52.344;14.518;2023-06-24T08:24:41;1.83;;;1.73;;
13693;SDS011;6919;52.344;14.518;2023-06-24T08:27:10;2.50;;;1.93;;
13693;SDS011;6919;52.344;14.518;2023-06-24T08:29:38;2.20;;;1.80;;
13693;SDS011;6919;52.344;14.518;2023-06-24T08:32:06;3.07;;;1.57;;
13693;SDS011;6919;52.344;14.518;2023-06-24T08:34:36;1.93;;;1.40;;
13693;SDS011;6919;52.344;14.518;2023-06-24T08:37:04;2.37;;;1.80;;
13693;SDS011;6919;52.344;14.518;2023-06-24T08:39:33;2.13;;;1.67;;
13693;SDS011;6919;52.344;14.518;2023-06-24T08:42:02;1.63;;;1.53;;
13693;SDS011;6919;52.344;14.518;2023-06-24T08:44:31;2.43;;;1.53;;
13693;SDS011;6919;52.344;14.518;2023-06-24T08:46:59;1.70;;;1.60;;
13693;SDS011;6919;52.344;14.518;2023-06-24T08:49:28;1.67;;;1.57;;
13693;SDS011;6919;52.344;14.518;2023-06-24T08:52:02;2.70;;;1.80;;
13693;SDS011;6919;52.344;14.518;2023-06-24T08:54:35;2.73;;;1.77;;
13693;SDS011;6919;52.344;14.518;2023-06-24T08:57:05;1.90;;;1.47;;
13693;SDS011;6919;52.344;14.518;2023-06-24T08:59:36;1.97;;;1.67;;
13693;SDS011;6919;52.344;14.518;2023-06-24T09:02:04;2.13;;;1.87;;
13693;SDS011;6919;52.344;14.518;2023-06-24T09:04:34;2.00;;;1.70;;
13693;SDS011;6919;52.344;14.518;2023-06-24T09:07:04;1.50;;;1.40;;
13693;SDS011;6919;52.344;14.518;2023-06-24T09:09:34;1.83;;;1.20;;
13693;SDS011;6919;52.344;14.518;2023-06-24T09:12:12;1.60;;;1.50;;
13693;SDS011;6919;52.344;14.518;2023-06-24T09:14:42;2.00;;;1.50;;
13693;SDS011;6919;52.344;14.518;2023-06-24T09:17:17;2.23;;;1.50;;
13693;SDS011;6919;52.344;14.518;2023-06-24T09:19:49;1.40;;;1.30;;
13693;SDS011;6919;52.344;14.518;2023-06-24T09:22:19;1.60;;;1.43;;
13693;SDS011;6919;52.344;14.518;2023-06-24T09:24:50;1.07;;;1.03;;
13693;SDS011;6919;52.344;14.518;2023-06-24T09:27:18;1.80;;;1.37;;
13693;SDS011;6919;52.344;14.518;2023-06-24T09:29:48;2.17;;;1.53;;
13693;SDS011;6919;52.344;14.518;2023-06-24T09:32:16;2.13;;;1.57;;
13693;SDS011;6919;52.344;14.518;2023-06-24T09:34:45;1.73;;;1.20;;
13693;SDS011;6919;52.344;14.518;2023-06-24T09:37:21;1.20;;;1.10;;
13693;SDS011;6919;52.344;14.518;2023-06-24T09:39:50;1.13;;;1.03;;
13693;SDS011;6919;52.344;14.518;2023-06-24T09:42:20;1.23;;;1.13;;
13693;SDS011;6919;52.344;14.518;2023-06-24T09:44:52;1.20;;;1.10;;
13693;SDS011;6919;52.344;14.518;2023-06-24T09:47:21;1.20;;;1.10;;
13693;SDS011;6919;52.344;14.518;2023-06-24T09:49:51;1.60;;;1.20;;
13693;SDS011;6919;52.344;14.518;2023-06-24T09:52:22;1.37;;;1.27;;
13693;SDS011;6919;52.344;14.518;2023-06-24T09:54:53;1.10;;;1.00;;
13693;SDS011;6919;52.344;14.518;2023-06-24T09:57:28;1.37;;;1.27;;
13693;SDS011;6919;52.344;14.518;2023-06-24T09:59:59;1.60;;;1.40;;
13693;SDS011;6919;52.344;14.518;2023-06-24T10:02:29;2.30;;;1.53;;
13693;SDS011;6919;52.344;14.518;2023-06-24T10:05:00;2.10;;;1.37;;
13693;SDS011;6919;52.344;14.518;2023-06-24T10:07:30;1.37;;;0.97;;
13693;SDS011;6919;52.344;14.518;2023-06-24T10:10:02;1.40;;;1.30;;
13693;SDS011;6919;52.344;14.518;2023-06-24T10:12:33;1.73;;;1.57;;
13693;SDS011;6919;52.344;14.518;2023-06-24T10:15:03;1.23;;;1.13;;
13693;SDS011;6919;52.344;14.518;2023-06-24T10:17:33;1.27;;;1.17;;
13693;SDS011;6919;52.344;14.518;2023-06-24T10:20:05;1.57;;;1.40;;
13693;SDS011;6919;52.344;14.518;2023-06-24T10:22:36;1.70;;;1.50;;
13693;SDS011;6919;52.344;14.518;2023-06-24T10:25:05;1.90;;;1.17;;
13693;SDS011;6919;52.344;14.518;2023-06-24T10:27:38;1.97;;;1.20;;
13693;SDS011;6919;52.344;14.518;2023-06-24T10:30:09;1.67;;;1.57;;
13693;SDS011;6919;52.344;14.518;2023-06-24T10:32:46;1.73;;;1.50;;
13693;SDS011;6919;52.344;14.518;2023-06-24T10:35:21;2.07;;;1.63;;
13693;SDS011;6919;52.344;14.518;2023-06-24T10:37:57;2.33;;;1.30;;
13693;SDS011;6919;52.344;14.518;2023-06-24T10:40:36;1.40;;;1.30;;
13693;SDS011;6919;52.344;14.518;2023-06-24T10:45:56;1.10;;;1.00;;
13693;SDS011;6919;52.344;14.518;2023-06-24T10:48:26;1.20;;;1.10;;
13693;SDS011;6919;52.344;14.518;2023-06-24T10:50:54;1.27;;;1.07;;
13693;SDS011;6919;52.344;14.518;2023-06-24T10:53:24;0.93;;;0.90;;
13693;SDS011;6919;52.344;14.518;2023-06-24T10:55:52;1.60;;;1.50;;
13693;SDS011;6919;52.344;14.518;2023-06-24T10:58:25;1.67;;;1.37;;
13693;SDS011;6919;52.344;14.518;2023-06-24T11:00:53;1.43;;;1.20;;
13693;SDS011;6919;52.344;14.518;2023-06-24T11:03:34;1.57;;;1.40;;
13693;SDS011;6919;52.344;14.518;2023-06-24T11:06:03;0.77;;;0.77;;
13693;SDS011;6919;52.344;14.518;2023-06-24T11:08:33;1.97;;;1.40;;
13693;SDS011;6919;52.344;14.518;2023-06-24T11:11:17;1.30;;;1.20;;
13693;SDS011;6919;52.344;14.518;2023-06-24T11:13:48;1.20;;;1.00;;
13693;SDS011;6919;52.344;14.518;2023-06-24T11:16:20;1.10;;;1.00;;
13693;SDS011;6919;52.344;14.518;2023-06-24T11:18:49;1.90;;;1.23;;
13693;SDS011;6919;52.344;14.518;2023-06-24T11:21:17;1.60;;;1.30;;
13693;SDS011;6919;52.344;14.518;2023-06-24T11:23:47;1.50;;;1.40;;
13693;SDS011;6919;52.344;14.518;2023-06-24T11:26:15;1.07;;;0.97;;
13693;SDS011;6919;52.344;14.518;2023-06-24T11:28:43;1.23;;;1.13;;
13693;SDS011;6919;52.344;14.518;2023-06-24T11:31:12;1.37;;;1.17;;
13693;SDS011;6919;52.344;14.518;2023-06-24T11:33:41;1.60;;;1.00;;
13693;SDS011;6919;52.344;14.518;2023-06-24T11:36:09;1.90;;;0.90;;
13693;SDS011;6919;52.344;14.518;2023-06-24T11:38:38;1.53;;;1.30;;
13693;SDS011;6919;52.344;14.518;2023-06-24T11:41:07;1.60;;;1.47;;
13693;SDS011;6919;52.344;14.518;2023-06-24T11:43:36;2.23;;;1.10;;
13693;SDS011;6919;52.344;14.518;2023-06-24T11:46:04;1.93;;;1.50;;
13693;SDS011;6919;52.344;14.518;2023-06-24T11:48:38;1.20;;;1.10;;
13693;SDS011;6919;52.344;14.518;2023-06-24T11:51:12;1.20;;;1.10;;
13693;SDS011;6919;52.344;14.518;2023-06-24T11:53:41;2.07;;;1.67;;
13693;SDS011;6919;52.344;14.518;2023-06-24T11:56:13;2.00;;;1.47;;
13693;SDS011;6919;52.344;14.518;2023-06-24T11:58:42;0.90;;;0.90;;
13693;SDS011;6919;52.344;14.518;2023-06-24T12:01:11;1.40;;;1.17;;
13693;SDS011;6919;52.344;14.518;2023-06-24T12:03:40;1.57;;;1.00;;
13693;SDS011;6919;52.344;14.518;2023-06-24T12:06:09;1.20;;;1.10;;
13693;SDS011;6919;52.344;14.518;2023-06-24T12:08:37;1.97;;;1.20;;
13693;SDS011;6919;52.344;14.518;2023-06-24T12:11:18;1.43;;;1.10;;
13693;SDS011;6919;52.344;14.518;2023-06-24T12:13:47;1.50;;;1.03;;
13693;SDS011;6919;52.344;14.518;2023-06-24T12:16:16;1.37;;;1.10;;
13693;SDS011;6919;52.344;14.518;2023-06-24T12:18:44;0.63;;;0.63;;
13693;SDS011;6919;52.344;14.518;2023-06-24T12:21:13;1.73;;;1.33;;
13693;SDS011;6919;52.344;14.518;2023-06-24T12:23:41;1.47;;;1.30;;
13693;SDS011;6919;52.344;14.518;2023-06-24T12:26:10;1.73;;;1.23;;
13693;SDS011;6919;52.344;14.518;2023-06-24T12:28:39;1.33;;;1.00;;
13693;SDS011;6919;52.344;14.518;2023-06-24T12:31:08;1.50;;;1.33;;
13693;SDS011;6919;52.344;14.518;2023-06-24T12:33:36;1.40;;;1.00;;
13693;SDS011;6919;52.344;14.518;2023-06-24T12:38:43;1.90;;;1.40;;
13693;SDS011;6919;52.344;14.518;2023-06-24T12:41:12;0.87;;;0.87;;
13693;SDS011;6919;52.344;14.518;2023-06-24T12:43:42;1.60;;;1.17;;
13693;SDS011;6919;52.344;14.518;2023-06-24T12:46:10;1.10;;;1.00;;
13693;SDS011;6919;52.344;14.518;2023-06-24T12:48:38;0.83;;;0.83;;
13693;SDS011;6919;52.344;14.518;2023-06-24T12:51:06;1.83;;;1.47;;
13693;SDS011;6919;52.344;14.518;2023-06-24T12:53:35;1.13;;;1.02;;
13693;SDS011;6919;52.344;14.518;2023-06-24T12:56:03;1.23;;;1.10;;
13693;SDS011;6919;52.344;14.518;2023-06-24T12:58:31;1.48;;;1.38;;
13693;SDS011;6919;52.344;14.518;2023-06-24T13:01:01;1.10;;;0.98;;
13693;SDS011;6919;52.344;14.518;2023-06-24T13:03:29;1.10;;;1.00;;
13693;SDS011;6919;52.344;14.518;2023-06-24T13:05:58;1.20;;;1.10;;
13693;SDS011;6919;52.344;14.518;2023-06-24T13:08:26;0.85;;;0.85;;
13693;SDS011;6919;52.344;14.518;2023-06-24T13:10:54;1.88;;;0.93;;
13693;SDS011;6919;52.344;14.518;2023-06-24T13:13:24;0.90;;;0.90;;
13693;SDS011;6919;52.344;14.518;2023-06-24T13:15:52;0.90;;;0.90;;
13693;SDS011;6919;52.344;14.518;2023-06-24T13:18:22;1.65;;;1.10;;
13693;SDS011;6919;52.344;14.518;2023-06-24T13:20:50;1.42;;;1.08;;
13693;SDS011;6919;52.344;14.518;2023-06-24T13:23:32;1.38;;;1.27;;
13693;SDS011;6919;52.344;14.518;2023-06-24T13:26:03;1.20;;;1.10;;
13693;SDS011;6919;52.344;14.518;2023-06-24T13:28:32;1.30;;;1.17;;
13693;SDS011;6919;52.344;14.518;2023-06-24T13:31:00;1.52;;;1.42;;
13693;SDS011;6919;52.344;14.518;2023-06-24T13:33:30;1.63;;;1.15;;
13693;SDS011;6919;52.344;14.518;2023-06-24T13:35:58;2.10;;;1.10;;
13693;SDS011;6919;52.344;14.518;2023-06-24T13:38:27;1.40;;;1.30;;
13693;SDS011;6919;52.344;14.518;2023-06-24T13:40:56;1.50;;;1.20;;
13693;SDS011;6919;52.344;14.518;2023-06-24T13:43:24;1.00;;;0.90;;
13693;SDS011;6919;52.344;14.518;2023-06-24T13:45:53;1.30;;;1.20;;
13693;SDS011;6919;52.344;14.518;2023-06-24T13:48:22;1.10;;;1.00;;
13693;SDS011;6919;52.344;14.518;2023-06-24T13:50:52;0.85;;;0.85;;
13693;SDS011;6919;52.344;14.518;2023-06-24T13:53:20;1.30;;;1.20;;
13693;SDS011;6919;52.344;14.518;2023-06-24T13:55:49;2.53;;;1.73;;
13693;SDS011;6919;52.344;14.518;2023-06-24T13:58:19;1.25;;;1.10;;
13693;SDS011;6919;52.344;14.518;2023-06-24T14:00:48;1.13;;;1.02;;
13693;SDS011;6919;52.344;14.518;2023-06-24T14:03:16;1.30;;;1.20;;
13693;SDS011;6919;52.344;14.518;2023-06-24T14:05:45;1.05;;;0.95;;
13693;SDS011;6919;52.344;14.518;2023-06-24T14:08:14;1.42;;;1.10;;
13693;SDS011;6919;52.344;14.518;2023-06-24T14:10:43;1.33;;;1.23;;
13693;SDS011;6919;52.344;14.518;2023-06-24T14:13:11;1.17;;;1.08;;
13693;SDS011;6919;52.344;14.518;2023-06-24T14:15:40;1.23;;;1.13;;
13693;SDS011;6919;52.344;14.518;2023-06-24T14:18:08;1.23;;;1.13;;
13693;SDS011;6919;52.344;14.518;2023-06-24T14:20:36;1.13;;;1.02;;
13693;SDS011;6919;52.344;14.518;2023-06-24T14:23:05;1.52;;;1.05;;
13693;SDS011;6919;52.344;14.518;2023-06-24T14:25:35;1.08;;;1.05;;
13693;SDS011;6919;52.344;14.518;2023-06-24T14:28:03;6.63;;;1.42;;
13693;SDS011;6919;52.344;14.518;2023-06-24T14:30:32;1.30;;;1.20;;
13693;SDS011;6919;52.344;14.518;2023-06-24T14:33:02;1.25;;;1.08;;
13693;SDS011;6919;52.344;14.518;2023-06-24T14:35:30;1.52;;;1.23;;
13693;SDS011;6919;52.344;14.518;2023-06-24T14:37:59;1.02;;;0.93;;
13693;SDS011;6919;52.344;14.518;2023-06-24T14:40:27;1.17;;;1.00;;
13693;SDS011;6919;52.344;14.518;2023-06-24T14:42:57;1.30;;;1.20;;
13693;SDS011;6919;52.344;14.518;2023-06-24T14:45:26;1.27;;;1.17;;
13693;SDS011;6919;52.344;14.518;2023-06-24T14:47:54;1.25;;;1.15;;
13693;SDS011;6919;52.344;14.518;2023-06-24T14:50:23;1.20;;;1.10;;
13693;SDS011;6919;52.344;14.518;2023-06-24T14:52:51;1.23;;;1.13;;
13693;SDS011;6919;52.344;14.518;2023-06-24T14:55:20;1.08;;;0.98;;
13693;SDS011;6919;52.344;14.518;2023-06-24T14:57:49;1.20;;;1.02;;
13693;SDS011;6919;52.344;14.518;2023-06-24T15:00:19;1.55;;;1.45;;
13693;SDS011;6919;52.344;14.518;2023-06-24T15:02:47;1.55;;;1.30;;
13693;SDS011;6919;52.344;14.518;2023-06-24T15:05:15;1.00;;;1.00;;
13693;SDS011;6919;52.344;14.518;2023-06-24T15:07:43;1.38;;;1.27;;
13693;SDS011;6919;52.344;14.518;2023-06-24T15:10:12;1.77;;;1.10;;
13693;SDS011;6919;52.344;14.518;2023-06-24T15:12:40;1.77;;;1.30;;